CheckWX is a tool to help pilots better visualize weather data.  It is not intended as a substitute for an official pre-flight weather briefing.

04:40:04 UTC

KDPA METAR
Dupage Airport
Chicago/West Chicago, Illinois, USA
Current

48 mins ago

KDPA 230352Z 01005KT 10SM CLR 15/12 A3009 RMK AO2 SLP185 T01500117
Observed
Aug-23 @ 03:52 UTC
Wind
  • 010° at 5 KTS
Visibility
10 SM
Flight Rules
VFR
Cloud Levels
  • Clear skies
Temperature
15°C / 59°F
Dewpoint
12°C / 54°F
Humidity
82%
Altimeter
30.09" Hg
Pressure
1018.92 hPa
Previous

2 hours ago

KDPA 230252Z 01005KT 10SM CLR 17/12 A3008 RMK AO2 SLP181 T01670117 53012
Observed
Aug-23 @ 02:52 UTC
Wind
  • 010° at 5 KTS
Visibility
10 SM
Flight Rules
VFR
Cloud Levels
  • Clear skies
Temperature
17°C / 63°F
Dewpoint
12°C / 54°F
Humidity
73%
Altimeter
30.08" Hg
Pressure
1018.62 hPa
Previous

3 hours ago

KDPA 230152Z 02004KT 10SM CLR 17/12 A3006 RMK AO2 SLP175 T01720117
Observed
Aug-23 @ 01:52 UTC
Wind
  • 020° at 4 KTS
Visibility
10 SM
Flight Rules
VFR
Cloud Levels
  • Clear skies
Temperature
17°C / 63°F
Dewpoint
12°C / 54°F
Humidity
73%
Altimeter
30.06" Hg
Pressure
1017.92 hPa